sensor_id;sensor_type;location;lat;lon;timestamp;temperature;humidity
39483;DHT22;25682;48.438;1.482;2022-12-07T00:01:10;18.60;61.30
39483;DHT22;25682;48.438;1.482;2022-12-07T00:03:36;18.60;61.30
39483;DHT22;25682;48.438;1.482;2022-12-07T00:06:02;18.60;61.20
39483;DHT22;25682;48.438;1.482;2022-12-07T00:08:28;18.60;61.20
39483;DHT22;25682;48.438;1.482;2022-12-07T00:10:53;18.60;61.10
39483;DHT22;25682;48.438;1.482;2022-12-07T00:13:19;18.60;61.70
39483;DHT22;25682;48.438;1.482;2022-12-07T00:15:44;18.60;61.10
39483;DHT22;25682;48.438;1.482;2022-12-07T00:18:10;18.60;61.10
39483;DHT22;25682;48.438;1.482;2022-12-07T00:20:35;18.60;61.00
39483;DHT22;25682;48.438;1.482;2022-12-07T00:23:01;18.50;61.00
39483;DHT22;25682;48.438;1.482;2022-12-07T00:25:26;18.50;61.00
39483;DHT22;25682;48.438;1.482;2022-12-07T00:27:53;18.50;60.90
39483;DHT22;25682;48.438;1.482;2022-12-07T00:30:20;18.50;60.90
39483;DHT22;25682;48.438;1.482;2022-12-07T00:32:46;18.50;60.90
39483;DHT22;25682;48.438;1.482;2022-12-07T00:35:12;18.50;60.90
39483;DHT22;25682;48.438;1.482;2022-12-07T00:37:37;18.50;60.90
39483;DHT22;25682;48.438;1.482;2022-12-07T00:40:03;18.50;60.90
39483;DHT22;25682;48.438;1.482;2022-12-07T00:42:28;18.50;60.80
39483;DHT22;25682;48.438;1.482;2022-12-07T00:44:54;18.50;60.80
39483;DHT22;25682;48.438;1.482;2022-12-07T00:47:19;18.40;60.70
39483;DHT22;25682;48.438;1.482;2022-12-07T00:49:45;18.50;60.70
39483;DHT22;25682;48.438;1.482;2022-12-07T00:52:10;18.40;60.70
39483;DHT22;25682;48.438;1.482;2022-12-07T00:54:36;18.40;60.60
39483;DHT22;25682;48.438;1.482;2022-12-07T00:57:01;18.40;60.60
39483;DHT22;25682;48.438;1.482;2022-12-07T00:59:26;18.40;60.60
39483;DHT22;25682;48.438;1.482;2022-12-07T01:01:52;18.40;60.60
39483;DHT22;25682;48.438;1.482;2022-12-07T01:04:18;18.40;60.60
39483;DHT22;25682;48.438;1.482;2022-12-07T01:06:43;18.40;60.60
39483;DHT22;25682;48.438;1.482;2022-12-07T01:09:09;18.40;60.60
39483;DHT22;25682;48.438;1.482;2022-12-07T01:11:34;18.40;60.50
39483;DHT22;25682;48.438;1.482;2022-12-07T01:14:00;18.40;60.50
39483;DHT22;25682;48.438;1.482;2022-12-07T01:16:27;18.30;60.40
39483;DHT22;25682;48.438;1.482;2022-12-07T01:18:53;18.30;60.40
39483;DHT22;25682;48.438;1.482;2022-12-07T01:21:22;18.30;60.40
39483;DHT22;25682;48.438;1.482;2022-12-07T01:23:48;18.30;60.40
39483;DHT22;25682;48.438;1.482;2022-12-07T01:26:15;18.30;60.40
39483;DHT22;25682;48.438;1.482;2022-12-07T01:28:42;18.30;60.40
39483;DHT22;25682;48.438;1.482;2022-12-07T01:31:09;18.30;60.30
39483;DHT22;25682;48.438;1.482;2022-12-07T01:33:40;18.30;60.30
39483;DHT22;25682;48.438;1.482;2022-12-07T01:36:16;18.30;60.30
39483;DHT22;25682;48.438;1.482;2022-12-07T01:38:42;18.30;60.30
39483;DHT22;25682;48.438;1.482;2022-12-07T01:41:07;18.30;60.20
39483;DHT22;25682;48.438;1.482;2022-12-07T01:43:33;18.30;60.20
39483;DHT22;25682;48.438;1.482;2022-12-07T01:45:59;18.30;60.20
39483;DHT22;25682;48.438;1.482;2022-12-07T01:48:30;18.30;60.20
39483;DHT22;25682;48.438;1.482;2022-12-07T01:50:59;18.30;60.10
39483;DHT22;25682;48.438;1.482;2022-12-07T01:53:26;18.20;60.10
39483;DHT22;25682;48.438;1.482;2022-12-07T01:55:54;18.20;60.00
39483;DHT22;25682;48.438;1.482;2022-12-07T01:58:21;18.20;60.00
39483;DHT22;25682;48.438;1.482;2022-12-07T02:00:47;18.20;60.00
39483;DHT22;25682;48.438;1.482;2022-12-07T02:03:23;18.20;60.00
39483;DHT22;25682;48.438;1.482;2022-12-07T02:05:50;18.20;59.90
39483;DHT22;25682;48.438;1.482;2022-12-07T02:08:16;18.20;59.90
39483;DHT22;25682;48.438;1.482;2022-12-07T02:10:42;18.20;59.90
39483;DHT22;25682;48.438;1.482;2022-12-07T02:13:21;18.20;59.80
39483;DHT22;25682;48.438;1.482;2022-12-07T02:29:10;18.10;59.70
39483;DHT22;25682;48.438;1.482;2022-12-07T02:31:37;18.10;59.70
39483;DHT22;25682;48.438;1.482;2022-12-07T02:34:06;18.10;59.60
39483;DHT22;25682;48.438;1.482;2022-12-07T02:36:33;18.10;59.60
39483;DHT22;25682;48.438;1.482;2022-12-07T02:39:19;18.10;59.60
39483;DHT22;25682;48.438;1.482;2022-12-07T02:41:52;18.10;59.50
39483;DHT22;25682;48.438;1.482;2022-12-07T02:44:22;18.10;59.50
39483;DHT22;25682;48.438;1.482;2022-12-07T02:47:07;18.10;59.50
39483;DHT22;25682;48.438;1.482;2022-12-07T02:49:35;18.00;59.40
39483;DHT22;25682;48.438;1.482;2022-12-07T02:52:01;18.00;59.40
39483;DHT22;25682;48.438;1.482;2022-12-07T02:54:27;18.10;59.40
39483;DHT22;25682;48.438;1.482;2022-12-07T03:06:43;18.00;59.10
39483;DHT22;25682;48.438;1.482;2022-12-07T03:09:20;18.00;59.10
39483;DHT22;25682;48.438;1.482;2022-12-07T03:11:49;18.00;59.10
39483;DHT22;25682;48.438;1.482;2022-12-07T03:14:20;18.00;59.00
39483;DHT22;25682;48.438;1.482;2022-12-07T03:17:09;18.00;59.00
39483;DHT22;25682;48.438;1.482;2022-12-07T03:19:33;18.00;59.00
39483;DHT22;25682;48.438;1.482;2022-12-07T03:22:02;18.00;59.00
39483;DHT22;25682;48.438;1.482;2022-12-07T03:24:30;18.00;59.00
39483;DHT22;25682;48.438;1.482;2022-12-07T03:27:01;18.00;58.90
39483;DHT22;25682;48.438;1.482;2022-12-07T03:29:49;18.00;58.90
39483;DHT22;25682;48.438;1.482;2022-12-07T03:32:21;18.00;58.90
39483;DHT22;25682;48.438;1.482;2022-12-07T03:37:21;17.90;58.70
39483;DHT22;25682;48.438;1.482;2022-12-07T03:42:17;17.90;58.60
39483;DHT22;25682;48.438;1.482;2022-12-07T03:44:42;17.90;58.60
39483;DHT22;25682;48.438;1.482;2022-12-07T03:49:39;17.90;58.50
39483;DHT22;25682;48.438;1.482;2022-12-07T03:54:39;17.90;58.50
39483;DHT22;25682;48.438;1.482;2022-12-07T03:57:04;17.90;58.50
39483;DHT22;25682;48.438;1.482;2022-12-07T03:59:31;17.90;58.40
39483;DHT22;25682;48.438;1.482;2022-12-07T04:01:57;17.90;58.40
39483;DHT22;25682;48.438;1.482;2022-12-07T04:04:26;17.90;58.30
39483;DHT22;25682;48.438;1.482;2022-12-07T04:06:51;17.90;58.30
39483;DHT22;25682;48.438;1.482;2022-12-07T04:09:17;17.90;58.30
39483;DHT22;25682;48.438;1.482;2022-12-07T04:11:43;17.90;58.30
39483;DHT22;25682;48.438;1.482;2022-12-07T04:14:08;17.90;58.30
39483;DHT22;25682;48.438;1.482;2022-12-07T04:19:14;17.90;58.30
39483;DHT22;25682;48.438;1.482;2022-12-07T04:21:40;18.00;58.30
39483;DHT22;25682;48.438;1.482;2022-12-07T04:24:06;18.00;58.30
39483;DHT22;25682;48.438;1.482;2022-12-07T04:26:31;18.00;58.40
39483;DHT22;25682;48.438;1.482;2022-12-07T04:28:57;18.10;58.30
39483;DHT22;25682;48.438;1.482;2022-12-07T04:31:22;18.10;58.30
39483;DHT22;25682;48.438;1.482;2022-12-07T04:33:48;18.10;58.20
39483;DHT22;25682;48.438;1.482;2022-12-07T04:36:13;18.10;58.20
39483;DHT22;25682;48.438;1.482;2022-12-07T04:38:39;18.20;58.20
39483;DHT22;25682;48.438;1.482;2022-12-07T04:41:05;18.20;58.30
39483;DHT22;25682;48.438;1.482;2022-12-07T04:43:31;18.20;58.30
39483;DHT22;25682;48.438;1.482;2022-12-07T04:45:56;18.20;58.50
39483;DHT22;25682;48.438;1.482;2022-12-07T04:48:22;18.20;58.50
39483;DHT22;25682;48.438;1.482;2022-12-07T04:50:48;18.20;58.60
39483;DHT22;25682;48.438;1.482;2022-12-07T04:53:14;18.20;58.60
39483;DHT22;25682;48.438;1.482;2022-12-07T04:55:40;18.20;58.50
39483;DHT22;25682;48.438;1.482;2022-12-07T04:58:06;18.20;58.60
39483;DHT22;25682;48.438;1.482;2022-12-07T05:00:31;18.20;58.70
39483;DHT22;25682;48.438;1.482;2022-12-07T05:02:57;18.20;58.70
39483;DHT22;25682;48.438;1.482;2022-12-07T05:05:22;18.30;58.70
39483;DHT22;25682;48.438;1.482;2022-12-07T05:07:48;18.30;58.70
39483;DHT22;25682;48.438;1.482;2022-12-07T05:10:13;18.30;58.70
39483;DHT22;25682;48.438;1.482;2022-12-07T05:12:39;18.30;58.60
39483;DHT22;25682;48.438;1.482;2022-12-07T05:15:04;18.30;58.60
39483;DHT22;25682;48.438;1.482;2022-12-07T05:17:30;18.30;58.60
39483;DHT22;25682;48.438;1.482;2022-12-07T05:19:55;18.30;58.60
39483;DHT22;25682;48.438;1.482;2022-12-07T05:22:21;18.30;58.50
39483;DHT22;25682;48.438;1.482;2022-12-07T05:24:46;18.30;58.40
39483;DHT22;25682;48.438;1.482;2022-12-07T05:27:12;18.30;58.30
39483;DHT22;25682;48.438;1.482;2022-12-07T05:29:37;18.30;58.30
39483;DHT22;25682;48.438;1.482;2022-12-07T05:32:03;18.30;58.20
39483;DHT22;25682;48.438;1.482;2022-12-07T05:34:28;18.30;58.20
39483;DHT22;25682;48.438;1.482;2022-12-07T05:36:54;18.40;58.20
39483;DHT22;25682;48.438;1.482;2022-12-07T05:39:19;18.30;58.00
39483;DHT22;25682;48.438;1.482;2022-12-07T05:41:45;18.40;57.90
39483;DHT22;25682;48.438;1.482;2022-12-07T05:44:29;18.40;57.90
39483;DHT22;25682;48.438;1.482;2022-12-07T05:46:54;18.40;57.70
39483;DHT22;25682;48.438;1.482;2022-12-07T05:49:20;18.40;57.60
39483;DHT22;25682;48.438;1.482;2022-12-07T05:51:45;18.40;57.40
39483;DHT22;25682;48.438;1.482;2022-12-07T05:54:11;18.40;57.30
39483;DHT22;25682;48.438;1.482;2022-12-07T05:56:36;18.40;57.10
39483;DHT22;25682;48.438;1.482;2022-12-07T05:59:02;18.40;57.10
39483;DHT22;25682;48.438;1.482;2022-12-07T06:01:46;18.40;57.00
39483;DHT22;25682;48.438;1.482;2022-12-07T06:04:11;18.40;56.90
39483;DHT22;25682;48.438;1.482;2022-12-07T06:06:37;18.40;56.80
39483;DHT22;25682;48.438;1.482;2022-12-07T06:09:03;18.40;56.70
39483;DHT22;25682;48.438;1.482;2022-12-07T06:11:28;18.40;56.70
39483;DHT22;25682;48.438;1.482;2022-12-07T06:14:12;18.40;56.60
39483;DHT22;25682;48.438;1.482;2022-12-07T06:16:38;18.40;56.30
39483;DHT22;25682;48.438;1.482;2022-12-07T06:19:04;18.50;56.40
39483;DHT22;25682;48.438;1.482;2022-12-07T06:21:29;18.50;56.40
39483;DHT22;25682;48.438;1.482;2022-12-07T06:23:55;18.50;56.50
39483;DHT22;25682;48.438;1.482;2022-12-07T06:26:20;18.50;56.30
39483;DHT22;25682;48.438;1.482;2022-12-07T06:28:46;18.50;56.60
39483;DHT22;25682;48.438;1.482;2022-12-07T06:31:12;18.50;55.80
39483;DHT22;25682;48.438;1.482;2022-12-07T06:33:37;18.50;55.60
39483;DHT22;25682;48.438;1.482;2022-12-07T06:36:03;18.60;55.40
39483;DHT22;25682;48.438;1.482;2022-12-07T06:38:28;18.60;55.10
39483;DHT22;25682;48.438;1.482;2022-12-07T06:40:54;18.70;55.00
39483;DHT22;25682;48.438;1.482;2022-12-07T06:43:19;18.70;54.90
39483;DHT22;25682;48.438;1.482;2022-12-07T06:45:45;18.70;54.80
39483;DHT22;25682;48.438;1.482;2022-12-07T06:48:10;18.70;54.80
39483;DHT22;25682;48.438;1.482;2022-12-07T06:50:36;18.70;54.80
39483;DHT22;25682;48.438;1.482;2022-12-07T06:53:02;18.70;54.80
39483;DHT22;25682;48.438;1.482;2022-12-07T06:55:27;18.70;54.80
39483;DHT22;25682;48.438;1.482;2022-12-07T06:57:53;18.70;54.70
39483;DHT22;25682;48.438;1.482;2022-12-07T07:00:18;18.70;54.60
39483;DHT22;25682;48.438;1.482;2022-12-07T07:02:44;18.70;54.50
39483;DHT22;25682;48.438;1.482;2022-12-07T07:05:09;18.70;54.50
39483;DHT22;25682;48.438;1.482;2022-12-07T07:07:35;18.70;54.40
39483;DHT22;25682;48.438;1.482;2022-12-07T07:10:00;18.70;54.30
39483;DHT22;25682;48.438;1.482;2022-12-07T07:12:26;18.70;54.20
39483;DHT22;25682;48.438;1.482;2022-12-07T07:14:51;18.70;54.20
39483;DHT22;25682;48.438;1.482;2022-12-07T07:17:17;18.70;54.10
39483;DHT22;25682;48.438;1.482;2022-12-07T07:19:42;18.70;54.00
39483;DHT22;25682;48.438;1.482;2022-12-07T07:22:08;18.70;54.00
39483;DHT22;25682;48.438;1.482;2022-12-07T07:24:33;18.70;53.90
39483;DHT22;25682;48.438;1.482;2022-12-07T07:26:59;18.70;53.80
39483;DHT22;25682;48.438;1.482;2022-12-07T07:29:24;18.70;53.70
39483;DHT22;25682;48.438;1.482;2022-12-07T07:31:50;18.70;53.60
39483;DHT22;25682;48.438;1.482;2022-12-07T07:34:15;18.70;53.60
39483;DHT22;25682;48.438;1.482;2022-12-07T07:36:41;18.70;53.50
39483;DHT22;25682;48.438;1.482;2022-12-07T07:39:06;18.70;53.40
39483;DHT22;25682;48.438;1.482;2022-12-07T07:41:32;18.70;53.30
39483;DHT22;25682;48.438;1.482;2022-12-07T07:43:57;18.70;53.30
39483;DHT22;25682;48.438;1.482;2022-12-07T07:46:23;18.70;53.20
39483;DHT22;25682;48.438;1.482;2022-12-07T07:48:48;18.70;53.10
39483;DHT22;25682;48.438;1.482;2022-12-07T07:51:14;18.70;53.00
39483;DHT22;25682;48.438;1.482;2022-12-07T07:53:39;18.70;53.00
39483;DHT22;25682;48.438;1.482;2022-12-07T07:56:05;18.70;52.90
39483;DHT22;25682;48.438;1.482;2022-12-07T07:58:30;18.70;52.80
39483;DHT22;25682;48.438;1.482;2022-12-07T08:00:56;18.70;52.80
39483;DHT22;25682;48.438;1.482;2022-12-07T08:03:21;18.70;52.80
39483;DHT22;25682;48.438;1.482;2022-12-07T08:05:49;18.70;52.60
39483;DHT22;25682;48.438;1.482;2022-12-07T08:08:14;18.70;52.60
39483;DHT22;25682;48.438;1.482;2022-12-07T08:10:40;18.70;52.50
39483;DHT22;25682;48.438;1.482;2022-12-07T08:13:06;18.70;52.50
39483;DHT22;25682;48.438;1.482;2022-12-07T08:15:39;18.70;52.40
39483;DHT22;25682;48.438;1.482;2022-12-07T08:18:05;18.70;52.40
39483;DHT22;25682;48.438;1.482;2022-12-07T08:20:31;18.70;52.30
39483;DHT22;25682;48.438;1.482;2022-12-07T08:22:57;18.70;52.30
39483;DHT22;25682;48.438;1.482;2022-12-07T08:25:23;18.70;52.50
39483;DHT22;25682;48.438;1.482;2022-12-07T08:27:48;18.70;52.20
39483;DHT22;25682;48.438;1.482;2022-12-07T08:30:14;18.70;52.20
39483;DHT22;25682;48.438;1.482;2022-12-07T08:32:40;18.70;52.10
39483;DHT22;25682;48.438;1.482;2022-12-07T08:35:05;18.70;52.00
39483;DHT22;25682;48.438;1.482;2022-12-07T08:37:31;18.70;52.00
39483;DHT22;25682;48.438;1.482;2022-12-07T08:39:56;18.70;52.00
39483;DHT22;25682;48.438;1.482;2022-12-07T08:42:22;18.70;52.00
39483;DHT22;25682;48.438;1.482;2022-12-07T08:44:52;18.70;51.90
39483;DHT22;25682;48.438;1.482;2022-12-07T08:47:18;18.70;51.80
39483;DHT22;25682;48.438;1.482;2022-12-07T08:49:44;18.70;51.80
39483;DHT22;25682;48.438;1.482;2022-12-07T08:52:12;18.70;51.80
39483;DHT22;25682;48.438;1.482;2022-12-07T08:54:38;18.70;51.70
39483;DHT22;25682;48.438;1.482;2022-12-07T08:57:05;18.70;51.70
39483;DHT22;25682;48.438;1.482;2022-12-07T08:59:31;18.70;51.60
39483;DHT22;25682;48.438;1.482;2022-12-07T09:01:58;18.70;51.60
39483;DHT22;25682;48.438;1.482;2022-12-07T09:04:23;18.70;51.60
39483;DHT22;25682;48.438;1.482;2022-12-07T09:06:49;18.70;51.80
39483;DHT22;25682;48.438;1.482;2022-12-07T09:09:14;18.70;51.80
39483;DHT22;25682;48.438;1.482;2022-12-07T09:11:40;18.80;52.10
39483;DHT22;25682;48.438;1.482;2022-12-07T09:14:06;18.80;52.30
39483;DHT22;25682;48.438;1.482;2022-12-07T09:16:31;18.80;52.20
39483;DHT22;25682;48.438;1.482;2022-12-07T09:18:57;18.90;52.30
39483;DHT22;25682;48.438;1.482;2022-12-07T09:21:22;18.90;52.50
39483;DHT22;25682;48.438;1.482;2022-12-07T09:23:48;18.90;52.50
39483;DHT22;25682;48.438;1.482;2022-12-07T09:26:13;18.90;52.60
39483;DHT22;25682;48.438;1.482;2022-12-07T09:28:39;18.90;52.60
39483;DHT22;25682;48.438;1.482;2022-12-07T09:31:04;19.00;52.70
39483;DHT22;25682;48.438;1.482;2022-12-07T09:33:30;19.00;52.70
39483;DHT22;25682;48.438;1.482;2022-12-07T09:35:56;19.00;52.70
39483;DHT22;25682;48.438;1.482;2022-12-07T09:38:21;19.10;52.70
39483;DHT22;25682;48.438;1.482;2022-12-07T09:40:47;19.10;52.70
39483;DHT22;25682;48.438;1.482;2022-12-07T09:43:13;19.20;52.50
39483;DHT22;25682;48.438;1.482;2022-12-07T09:45:39;19.20;52.30
39483;DHT22;25682;48.438;1.482;2022-12-07T09:48:05;19.30;52.20
39483;DHT22;25682;48.438;1.482;2022-12-07T09:50:31;19.30;52.10
39483;DHT22;25682;48.438;1.482;2022-12-07T09:53:07;19.40;52.10
39483;DHT22;25682;48.438;1.482;2022-12-07T09:55:41;19.40;52.00
39483;DHT22;25682;48.438;1.482;2022-12-07T09:58:11;19.40;52.10
39483;DHT22;25682;48.438;1.482;2022-12-07T10:00:39;19.30;52.00
39483;DHT22;25682;48.438;1.482;2022-12-07T10:03:08;19.30;52.10
39483;DHT22;25682;48.438;1.482;2022-12-07T10:05:37;19.30;52.00
39483;DHT22;25682;48.438;1.482;2022-12-07T10:08:03;19.40;52.10
39483;DHT22;25682;48.438;1.482;2022-12-07T10:10:30;19.40;52.00
39483;DHT22;25682;48.438;1.482;2022-12-07T10:13:00;19.40;52.00
39483;DHT22;25682;48.438;1.482;2022-12-07T10:16:16;19.30;52.00
39483;DHT22;25682;48.438;1.482;2022-12-07T10:18:31;19.40;52.00
39483;DHT22;25682;48.438;1.482;2022-12-07T10:21:05;19.50;51.90
39483;DHT22;25682;48.438;1.482;2022-12-07T10:23:33;19.60;51.80
39483;DHT22;25682;48.438;1.482;2022-12-07T10:25:59;19.70;51.60
39483;DHT22;25682;48.438;1.482;2022-12-07T10:28:27;19.70;51.60
39483;DHT22;25682;48.438;1.482;2022-12-07T10:31:01;19.70;51.70
39483;DHT22;25682;48.438;1.482;2022-12-07T10:33:29;19.70;51.70
39483;DHT22;25682;48.438;1.482;2022-12-07T10:35:55;19.70;51.70
39483;DHT22;25682;48.438;1.482;2022-12-07T10:38:20;19.70;51.70
39483;DHT22;25682;48.438;1.482;2022-12-07T10:40:46;19.70;51.60
39483;DHT22;25682;48.438;1.482;2022-12-07T10:48:20;19.80;51.50
39483;DHT22;25682;48.438;1.482;2022-12-07T10:51:02;19.80;51.50
39483;DHT22;25682;48.438;1.482;2022-12-07T10:53:44;19.80;51.50
39483;DHT22;25682;48.438;1.482;2022-12-07T10:56:20;19.80;51.40
39483;DHT22;25682;48.438;1.482;2022-12-07T11:06:35;19.90;51.40
39483;DHT22;25682;48.438;1.482;2022-12-07T11:12:00;19.90;51.30
39483;DHT22;25682;48.438;1.482;2022-12-07T11:14:31;20.00;51.20
39483;DHT22;25682;48.438;1.482;2022-12-07T11:22:18;20.00;51.10
39483;DHT22;25682;48.438;1.482;2022-12-07T11:27:27;20.00;51.10
39483;DHT22;25682;48.438;1.482;2022-12-07T11:37:35;20.20;51.20
39483;DHT22;25682;48.438;1.482;2022-12-07T11:42:46;20.20;51.10
39483;DHT22;25682;48.438;1.482;2022-12-07T11:45:15;20.30;51.00
39483;DHT22;25682;48.438;1.482;2022-12-07T11:50:27;20.40;50.90
39483;DHT22;25682;48.438;1.482;2022-12-07T11:53:09;20.40;50.90
39483;DHT22;25682;48.438;1.482;2022-12-07T12:03:34;20.40;51.60
39483;DHT22;25682;48.438;1.482;2022-12-07T12:06:00;20.50;51.70
39483;DHT22;25682;48.438;1.482;2022-12-07T12:13:24;20.50;52.10
39483;DHT22;25682;48.438;1.482;2022-12-07T12:15:58;20.50;52.30
39483;DHT22;25682;48.438;1.482;2022-12-07T12:18:35;20.50;52.50
39483;DHT22;25682;48.438;1.482;2022-12-07T12:21:04;20.60;52.60
39483;DHT22;25682;48.438;1.482;2022-12-07T12:26:01;20.60;52.70
39483;DHT22;25682;48.438;1.482;2022-12-07T12:28:28;20.60;52.80
39483;DHT22;25682;48.438;1.482;2022-12-07T12:31:05;20.70;52.90
39483;DHT22;25682;48.438;1.482;2022-12-07T12:33:31;20.70;52.90
39483;DHT22;25682;48.438;1.482;2022-12-07T12:44:38;20.60;53.20
39483;DHT22;25682;48.438;1.482;2022-12-07T12:47:38;20.60;53.20
39483;DHT22;25682;48.438;1.482;2022-12-07T12:49:36;20.20;52.90
39483;DHT22;25682;48.438;1.482;2022-12-07T12:54:36;20.10;53.30
39483;DHT22;25682;48.438;1.482;2022-12-07T13:07:49;20.20;52.90
39483;DHT22;25682;48.438;1.482;2022-12-07T13:18:01;20.10;53.20
39483;DHT22;25682;48.438;1.482;2022-12-07T13:20:40;20.10;53.30
39483;DHT22;25682;48.438;1.482;2022-12-07T13:23:06;20.20;53.30
39483;DHT22;25682;48.438;1.482;2022-12-07T13:25:44;20.10;53.20
39483;DHT22;25682;48.438;1.482;2022-12-07T13:28:16;20.10;53.30
39483;DHT22;25682;48.438;1.482;2022-12-07T13:31:27;20.10;53.30
39483;DHT22;25682;48.438;1.482;2022-12-07T13:33:32;20.10;53.30
39483;DHT22;25682;48.438;1.482;2022-12-07T13:35:59;20.10;53.30
39483;DHT22;25682;48.438;1.482;2022-12-07T13:38:33;20.10;53.30
39483;DHT22;25682;48.438;1.482;2022-12-07T13:43:45;20.00;53.30
39483;DHT22;25682;48.438;1.482;2022-12-07T13:46:11;20.00;53.30
39483;DHT22;25682;48.438;1.482;2022-12-07T13:48:44;19.90;53.20
39483;DHT22;25682;48.438;1.482;2022-12-07T13:51:16;19.90;53.20
39483;DHT22;25682;48.438;1.482;2022-12-07T13:53:49;19.90;53.20
39483;DHT22;25682;48.438;1.482;2022-12-07T13:56:15;19.90;53.30
39483;DHT22;25682;48.438;1.482;2022-12-07T13:58:41;19.90;53.30
39483;DHT22;25682;48.438;1.482;2022-12-07T14:01:07;19.90;53.30
39483;DHT22;25682;48.438;1.482;2022-12-07T14:03:33;19.90;53.30
39483;DHT22;25682;48.438;1.482;2022-12-07T14:06:03;19.90;53.20
39483;DHT22;25682;48.438;1.482;2022-12-07T14:08:29;19.90;53.10
39483;DHT22;25682;48.438;1.482;2022-12-07T14:10:55;19.90;53.10
39483;DHT22;25682;48.438;1.482;2022-12-07T14:13:31;19.90;53.10
39483;DHT22;25682;48.438;1.482;2022-12-07T14:15:59;19.90;53.20
39483;DHT22;25682;48.438;1.482;2022-12-07T14:18:26;19.90;53.20
39483;DHT22;25682;48.438;1.482;2022-12-07T14:21:02;19.90;53.10
39483;DHT22;25682;48.438;1.482;2022-12-07T14:23:27;19.80;53.10
39483;DHT22;25682;48.438;1.482;2022-12-07T14:25:53;19.80;53.00
39483;DHT22;25682;48.438;1.482;2022-12-07T14:30:50;19.80;53.00
39483;DHT22;25682;48.438;1.482;2022-12-07T14:33:15;19.80;52.80
39483;DHT22;25682;48.438;1.482;2022-12-07T14:35:41;19.80;52.80
39483;DHT22;25682;48.438;1.482;2022-12-07T14:38:07;19.80;52.80
39483;DHT22;25682;48.438;1.482;2022-12-07T14:40:33;19.80;52.90
39483;DHT22;25682;48.438;1.482;2022-12-07T14:43:03;19.80;52.90
39483;DHT22;25682;48.438;1.482;2022-12-07T14:45:29;19.80;52.90
39483;DHT22;25682;48.438;1.482;2022-12-07T14:47:55;19.80;52.90
39483;DHT22;25682;48.438;1.482;2022-12-07T14:50:20;19.80;52.90
39483;DHT22;25682;48.438;1.482;2022-12-07T14:52:48;19.70;52.90
39483;DHT22;25682;48.438;1.482;2022-12-07T14:55:20;19.70;52.90
39483;DHT22;25682;48.438;1.482;2022-12-07T14:57:47;19.70;52.90
39483;DHT22;25682;48.438;1.482;2022-12-07T15:00:13;19.70;52.90
39483;DHT22;25682;48.438;1.482;2022-12-07T15:02:39;19.70;52.90
39483;DHT22;25682;48.438;1.482;2022-12-07T15:05:04;19.70;53.00
39483;DHT22;25682;48.438;1.482;2022-12-07T15:07:30;19.70;53.00
39483;DHT22;25682;48.438;1.482;2022-12-07T15:09:55;19.70;53.00
39483;DHT22;25682;48.438;1.482;2022-12-07T15:12:21;19.80;52.30
39483;DHT22;25682;48.438;1.482;2022-12-07T15:14:46;19.80;52.80
39483;DHT22;25682;48.438;1.482;2022-12-07T15:17:12;19.80;52.80
39483;DHT22;25682;48.438;1.482;2022-12-07T15:19:38;19.80;52.80
39483;DHT22;25682;48.438;1.482;2022-12-07T15:22:03;19.80;52.80
39483;DHT22;25682;48.438;1.482;2022-12-07T15:24:29;19.80;52.80
39483;DHT22;25682;48.438;1.482;2022-12-07T15:26:55;19.90;52.80
39483;DHT22;25682;48.438;1.482;2022-12-07T15:29:20;19.90;52.70
39483;DHT22;25682;48.438;1.482;2022-12-07T15:31:47;19.90;52.70
39483;DHT22;25682;48.438;1.482;2022-12-07T15:34:13;19.80;52.70
39483;DHT22;25682;48.438;1.482;2022-12-07T15:36:38;19.80;52.70
39483;DHT22;25682;48.438;1.482;2022-12-07T15:39:04;19.70;52.90
39483;DHT22;25682;48.438;1.482;2022-12-07T15:41:29;19.70;53.10
39483;DHT22;25682;48.438;1.482;2022-12-07T15:43:55;19.70;53.20
39483;DHT22;25682;48.438;1.482;2022-12-07T15:46:39;19.60;53.20
39483;DHT22;25682;48.438;1.482;2022-12-07T15:49:12;19.60;53.30
39483;DHT22;25682;48.438;1.482;2022-12-07T15:51:38;19.60;53.30
39483;DHT22;25682;48.438;1.482;2022-12-07T15:54:04;19.60;53.40
39483;DHT22;25682;48.438;1.482;2022-12-07T15:56:29;19.60;53.00
39483;DHT22;25682;48.438;1.482;2022-12-07T15:58:55;19.50;52.90
39483;DHT22;25682;48.438;1.482;2022-12-07T16:01:21;19.40;53.00
39483;DHT22;25682;48.438;1.482;2022-12-07T16:03:46;19.40;53.00
39483;DHT22;25682;48.438;1.482;2022-12-07T16:06:14;19.50;52.90
39483;DHT22;25682;48.438;1.482;2022-12-07T16:08:43;19.60;52.80
39483;DHT22;25682;48.438;1.482;2022-12-07T16:11:09;19.60;52.80
39483;DHT22;25682;48.438;1.482;2022-12-07T16:13:35;19.60;52.80
39483;DHT22;25682;48.438;1.482;2022-12-07T16:16:04;19.60;52.80
39483;DHT22;25682;48.438;1.482;2022-12-07T16:18:30;19.60;52.80
39483;DHT22;25682;48.438;1.482;2022-12-07T16:20:55;19.60;52.80
39483;DHT22;25682;48.438;1.482;2022-12-07T16:23:21;19.50;52.90
39483;DHT22;25682;48.438;1.482;2022-12-07T16:25:46;19.60;53.20
39483;DHT22;25682;48.438;1.482;2022-12-07T16:28:12;19.60;53.30
39483;DHT22;25682;48.438;1.482;2022-12-07T16:30:37;19.60;53.40
39483;DHT22;25682;48.438;1.482;2022-12-07T16:33:03;19.60;53.50
39483;DHT22;25682;48.438;1.482;2022-12-07T16:35:28;19.60;53.50
39483;DHT22;25682;48.438;1.482;2022-12-07T16:37:54;19.60;53.50
39483;DHT22;25682;48.438;1.482;2022-12-07T16:40:19;19.60;53.50
39483;DHT22;25682;48.438;1.482;2022-12-07T16:42:45;19.60;53.50
39483;DHT22;25682;48.438;1.482;2022-12-07T16:45:10;19.70;53.50
39483;DHT22;25682;48.438;1.482;2022-12-07T16:47:39;19.70;53.40
39483;DHT22;25682;48.438;1.482;2022-12-07T16:50:05;19.70;53.40
39483;DHT22;25682;48.438;1.482;2022-12-07T16:52:30;19.70;53.40
39483;DHT22;25682;48.438;1.482;2022-12-07T16:54:56;19.70;53.30
39483;DHT22;25682;48.438;1.482;2022-12-07T16:57:21;19.60;53.30
39483;DHT22;25682;48.438;1.482;2022-12-07T16:59:47;19.60;53.40
39483;DHT22;25682;48.438;1.482;2022-12-07T17:02:12;19.60;53.50
39483;DHT22;25682;48.438;1.482;2022-12-07T17:04:38;19.60;53.50
39483;DHT22;25682;48.438;1.482;2022-12-07T17:07:05;19.50;53.50
39483;DHT22;25682;48.438;1.482;2022-12-07T17:09:30;19.50;53.70
39483;DHT22;25682;48.438;1.482;2022-12-07T17:11:56;19.40;53.70
39483;DHT22;25682;48.438;1.482;2022-12-07T17:14:22;19.40;53.60
39483;DHT22;25682;48.438;1.482;2022-12-07T17:17:06;19.40;53.80
39483;DHT22;25682;48.438;1.482;2022-12-07T17:19:31;19.30;53.80
39483;DHT22;25682;48.438;1.482;2022-12-07T17:21:57;19.40;54.10
39483;DHT22;25682;48.438;1.482;2022-12-07T17:24:22;19.30;53.80
39483;DHT22;25682;48.438;1.482;2022-12-07T17:26:48;19.40;53.90
39483;DHT22;25682;48.438;1.482;2022-12-07T17:29:15;19.40;53.80
39483;DHT22;25682;48.438;1.482;2022-12-07T17:31:40;19.40;53.60
39483;DHT22;25682;48.438;1.482;2022-12-07T17:34:12;19.40;53.70